RYR9523 EGSS-EKCH
Flight info
| Callsign | RYR9523 |
|---|---|
| Flight time | N/A |
| Altitude | 35000 |
| Route | CLN P44 SOMVA DCT MAVAS DCT DOSUR P729 TUDLO |
| Aircraft | B38M/M-SDE1FGHILORVWXY/HB1 |
Departure
| Time | N/A |
|---|---|
| Airport | London Stansted Airport (EGSS) |
Arrival
| Time | 2026-05-03 21:21 |
|---|---|
| Airport | Copenhagen Kastrup Airport (EKCH) |
| Time | Latitude | Longitude | Altitude | Speed | Heading |
|---|---|---|---|---|---|
| 2026-05-03 20:15 | 52.00469 | 1.71996 | 26501 ft | 433 kts | 63° |
| 2026-05-03 20:15 | 52.01919 | 1.76303 | 26891 ft | 436 kts | 64° |
| 2026-05-03 20:15 | 52.03828 | 1.82076 | 27423 ft | 440 kts | 64° |
| 2026-05-03 20:15 | 52.05269 | 1.86472 | 27820 ft | 442 kts | 64° |
| 2026-05-03 20:16 | 52.06714 | 1.90900 | 28200 ft | 445 kts | 64° |
| 2026-05-03 20:16 | 52.08178 | 1.95358 | 28578 ft | 448 kts | 64° |
| 2026-05-03 20:16 | 52.09182 | 1.98384 | 28838 ft | 450 kts | 64° |
| 2026-05-03 20:16 | 52.10651 | 2.02827 | 29198 ft | 453 kts | 64° |
| 2026-05-03 20:17 | 52.12145 | 2.07358 | 29556 ft | 456 kts | 64° |
| 2026-05-03 20:17 | 52.13649 | 2.11926 | 29914 ft | 459 kts | 64° |
| 2026-05-03 20:17 | 52.15157 | 2.16518 | 30215 ft | 461 kts | 64° |
| 2026-05-03 20:17 | 52.16674 | 2.21142 | 30527 ft | 463 kts | 64° |
| 2026-05-03 20:18 | 52.18192 | 2.25778 | 30838 ft | 465 kts | 64° |
| 2026-05-03 20:18 | 52.19714 | 2.30439 | 31152 ft | 467 kts | 64° |
| 2026-05-03 20:18 | 52.21241 | 2.35121 | 31456 ft | 468 kts | 64° |
| 2026-05-03 20:18 | 52.22772 | 2.39825 | 31765 ft | 470 kts | 64° |
| 2026-05-03 20:19 | 52.24304 | 2.44542 | 32067 ft | 472 kts | 64° |
| 2026-05-03 20:19 | 52.25846 | 2.49300 | 32361 ft | 474 kts | 64° |
| 2026-05-03 20:19 | 52.27389 | 2.54066 | 32654 ft | 475 kts | 64° |
| 2026-05-03 20:19 | 52.28932 | 2.58842 | 32976 ft | 476 kts | 64° |
| 2026-05-03 20:20 | 52.30432 | 2.63577 | 33371 ft | 474 kts | 68° |
| 2026-05-03 20:20 | 52.31462 | 2.68651 | 33795 ft | 468 kts | 78° |
| 2026-05-03 20:20 | 52.32361 | 2.73761 | 34112 ft | 468 kts | 76° |
| 2026-05-03 20:20 | 52.33275 | 2.78873 | 34381 ft | 468 kts | 76° |
| 2026-05-03 20:21 | 52.34178 | 2.83991 | 34674 ft | 468 kts | 76° |
| 2026-05-03 20:21 | 52.35077 | 2.89114 | 34911 ft | 469 kts | 76° |
| 2026-05-03 20:21 | 52.35977 | 2.94263 | 34924 ft | 470 kts | 76° |
| 2026-05-03 20:22 | 52.37758 | 3.04500 | 34911 ft | 467 kts | 77° |
| 2026-05-03 20:22 | 52.39603 | 3.14732 | 34892 ft | 470 kts | 69° |
| 2026-05-03 20:22 | 52.41176 | 3.19333 | 34899 ft | 471 kts | 54° |
| 2026-05-03 20:23 | 52.43128 | 3.23655 | 34903 ft | 473 kts | 55° |
| 2026-05-03 20:23 | 52.47045 | 3.32360 | 34903 ft | 474 kts | 54° |
| 2026-05-03 20:24 | 52.50980 | 3.41019 | 34902 ft | 473 kts | 54° |
| 2026-05-03 20:24 | 52.54922 | 3.49708 | 34904 ft | 474 kts | 54° |
| 2026-05-03 20:25 | 52.58852 | 3.58403 | 34903 ft | 474 kts | 54° |
| 2026-05-03 20:25 | 52.62754 | 3.67063 | 34908 ft | 474 kts | 54° |
| 2026-05-03 20:26 | 52.66680 | 3.75806 | 34904 ft | 475 kts | 54° |
| 2026-05-03 20:26 | 52.70604 | 3.84576 | 34913 ft | 475 kts | 54° |
| 2026-05-03 20:27 | 52.74517 | 3.93351 | 34909 ft | 475 kts | 54° |
| 2026-05-03 20:27 | 52.78429 | 4.02154 | 34916 ft | 475 kts | 54° |
| 2026-05-03 20:28 | 52.82334 | 4.10972 | 34913 ft | 475 kts | 54° |
| 2026-05-03 20:28 | 52.86204 | 4.19741 | 34913 ft | 475 kts | 54° |
| 2026-05-03 20:29 | 52.90091 | 4.28580 | 34912 ft | 474 kts | 55° |
| 2026-05-03 20:29 | 52.93971 | 4.37432 | 34908 ft | 474 kts | 55° |
| 2026-05-03 20:30 | 52.97846 | 4.46306 | 34910 ft | 474 kts | 55° |
| 2026-05-03 20:30 | 53.01709 | 4.55181 | 34913 ft | 474 kts | 55° |
| 2026-05-03 20:31 | 53.05542 | 4.64020 | 34907 ft | 474 kts | 55° |
| 2026-05-03 20:31 | 53.09384 | 4.72910 | 34912 ft | 473 kts | 55° |
| 2026-05-03 20:32 | 53.13221 | 4.81820 | 34909 ft | 473 kts | 55° |
| 2026-05-03 20:32 | 53.17047 | 4.90736 | 34909 ft | 473 kts | 55° |
| 2026-05-03 20:33 | 53.20869 | 4.99672 | 34908 ft | 473 kts | 55° |
| 2026-05-03 20:33 | 53.24656 | 5.08560 | 34906 ft | 472 kts | 56° |
| 2026-05-03 20:34 | 53.28460 | 5.17519 | 34905 ft | 472 kts | 56° |
| 2026-05-03 20:34 | 53.32264 | 5.26508 | 34908 ft | 472 kts | 56° |
| 2026-05-03 20:35 | 53.36039 | 5.35462 | 34912 ft | 473 kts | 56° |
| 2026-05-03 20:35 | 53.39829 | 5.44482 | 34908 ft | 473 kts | 56° |
| 2026-05-03 20:36 | 53.43614 | 5.53525 | 34910 ft | 473 kts | 56° |
| 2026-05-03 20:36 | 53.47388 | 5.62573 | 34910 ft | 473 kts | 56° |
| 2026-05-03 20:37 | 53.51130 | 5.71576 | 34912 ft | 473 kts | 56° |
| 2026-05-03 20:37 | 53.54891 | 5.80655 | 34906 ft | 473 kts | 57° |
| 2026-05-03 20:38 | 53.58652 | 5.89772 | 34904 ft | 474 kts | 57° |
| 2026-05-03 20:38 | 53.62411 | 5.98913 | 34901 ft | 475 kts | 57° |
| 2026-05-03 20:39 | 53.66169 | 6.08088 | 34895 ft | 475 kts | 57° |
| 2026-05-03 20:39 | 53.69923 | 6.17284 | 34896 ft | 476 kts | 57° |
| 2026-05-03 20:40 | 53.73675 | 6.26509 | 34897 ft | 477 kts | 57° |
| 2026-05-03 20:40 | 53.77428 | 6.35772 | 34893 ft | 477 kts | 57° |
| 2026-05-03 20:41 | 53.81177 | 6.45059 | 34892 ft | 478 kts | 57° |
| 2026-05-03 20:41 | 53.84901 | 6.54318 | 34886 ft | 479 kts | 57° |
| 2026-05-03 20:42 | 53.88644 | 6.63660 | 34887 ft | 479 kts | 58° |
| 2026-05-03 20:42 | 53.92391 | 6.73045 | 34887 ft | 480 kts | 58° |
| 2026-05-03 20:43 | 53.96135 | 6.82458 | 34888 ft | 481 kts | 58° |
| 2026-05-03 20:43 | 53.99874 | 6.91897 | 34889 ft | 482 kts | 58° |
| 2026-05-03 20:44 | 54.03593 | 7.01319 | 34886 ft | 482 kts | 58° |
| 2026-05-03 20:44 | 54.07335 | 7.10833 | 34881 ft | 483 kts | 58° |
| 2026-05-03 20:45 | 54.11070 | 7.20369 | 34880 ft | 483 kts | 58° |
| 2026-05-03 20:45 | 54.14768 | 7.29845 | 34879 ft | 483 kts | 58° |
| 2026-05-03 20:46 | 54.18483 | 7.39398 | 34878 ft | 483 kts | 59° |
| 2026-05-03 20:46 | 54.22196 | 7.48987 | 34875 ft | 483 kts | 59° |
| 2026-05-03 20:47 | 54.25902 | 7.58592 | 34873 ft | 484 kts | 59° |
| 2026-05-03 20:47 | 54.29605 | 7.68228 | 34867 ft | 484 kts | 59° |
| 2026-05-03 20:48 | 54.33301 | 7.77883 | 34867 ft | 484 kts | 59° |
| 2026-05-03 20:48 | 54.36964 | 7.87490 | 34863 ft | 484 kts | 59° |
| 2026-05-03 20:49 | 54.40638 | 7.97161 | 34864 ft | 484 kts | 59° |
| 2026-05-03 20:49 | 54.44307 | 8.06859 | 34863 ft | 484 kts | 59° |
| 2026-05-03 20:50 | 54.47966 | 8.16565 | 34859 ft | 484 kts | 59° |
| 2026-05-03 20:50 | 54.51615 | 8.26286 | 34855 ft | 484 kts | 60° |
| 2026-05-03 20:51 | 54.55258 | 8.36028 | 34853 ft | 483 kts | 60° |
| 2026-05-03 20:51 | 54.58873 | 8.45732 | 34852 ft | 484 kts | 60° |
| 2026-05-03 20:52 | 54.62500 | 8.55505 | 34852 ft | 483 kts | 60° |
| 2026-05-03 20:52 | 54.66122 | 8.65298 | 34846 ft | 484 kts | 60° |
| 2026-05-03 20:53 | 54.69740 | 8.75115 | 34846 ft | 484 kts | 60° |
| 2026-05-03 20:53 | 54.73342 | 8.84947 | 34843 ft | 483 kts | 62° |
| 2026-05-03 20:54 | 54.76473 | 8.95135 | 34837 ft | 482 kts | 65° |
| 2026-05-03 20:54 | 54.81234 | 9.10499 | 34839 ft | 483 kts | 64° |
| 2026-05-03 20:55 | 54.84411 | 9.20760 | 34839 ft | 482 kts | 64° |
| 2026-05-03 20:55 | 54.87575 | 9.31025 | 34606 ft | 482 kts | 65° |
| 2026-05-03 20:56 | 54.89154 | 9.36162 | 34474 ft | 482 kts | 65° |
| 2026-05-03 20:56 | 54.90730 | 9.41300 | 34345 ft | 482 kts | 65° |
| 2026-05-03 20:56 | 54.92307 | 9.46454 | 34210 ft | 483 kts | 65° |
| 2026-05-03 20:56 | 54.93880 | 9.51606 | 34043 ft | 483 kts | 65° |
| 2026-05-03 20:57 | 54.95453 | 9.56771 | 33829 ft | 483 kts | 65° |
| 2026-05-03 20:57 | 54.97026 | 9.61945 | 33589 ft | 483 kts | 65° |
| 2026-05-03 20:57 | 54.98586 | 9.67085 | 33444 ft | 472 kts | 65° |
| 2026-05-03 20:57 | 55.00095 | 9.72069 | 33316 ft | 459 kts | 65° |
| 2026-05-03 20:58 | 55.01573 | 9.76967 | 32860 ft | 456 kts | 65° |
| 2026-05-03 20:58 | 55.03026 | 9.81784 | 32304 ft | 455 kts | 65° |
| 2026-05-03 20:58 | 55.04496 | 9.86673 | 31756 ft | 453 kts | 65° |
| 2026-05-03 20:58 | 55.05955 | 9.91533 | 31274 ft | 450 kts | 66° |
| 2026-05-03 20:59 | 55.07401 | 9.96356 | 30831 ft | 447 kts | 66° |
| 2026-05-03 20:59 | 55.08836 | 10.01157 | 30370 ft | 445 kts | 66° |
| 2026-05-03 20:59 | 55.10262 | 10.05938 | 29904 ft | 442 kts | 66° |
| 2026-05-03 20:59 | 55.11676 | 10.10685 | 29374 ft | 440 kts | 66° |
| 2026-05-03 21:00 | 55.13081 | 10.15413 | 28908 ft | 436 kts | 65° |
| 2026-05-03 21:00 | 55.13535 | 10.16940 | 28762 ft | 435 kts | 66° |
| 2026-05-03 21:00 | 55.15846 | 10.24744 | 28025 ft | 429 kts | 65° |
| 2026-05-03 21:00 | 55.17208 | 10.29353 | 27587 ft | 425 kts | 65° |
| 2026-05-03 21:01 | 55.18562 | 10.33944 | 27152 ft | 422 kts | 65° |
| 2026-05-03 21:01 | 55.19885 | 10.38441 | 26728 ft | 420 kts | 65° |
| 2026-05-03 21:01 | 55.21215 | 10.42971 | 26311 ft | 417 kts | 65° |
| 2026-05-03 21:01 | 55.22536 | 10.47478 | 25897 ft | 414 kts | 65° |
| 2026-05-03 21:02 | 55.23848 | 10.51962 | 25480 ft | 412 kts | 65° |
| 2026-05-03 21:02 | 55.25149 | 10.56415 | 25069 ft | 410 kts | 65° |
| 2026-05-03 21:02 | 55.26443 | 10.60856 | 24663 ft | 408 kts | 65° |
| 2026-05-03 21:02 | 55.27685 | 10.65311 | 24233 ft | 405 kts | 71° |
| 2026-05-03 21:03 | 55.28503 | 10.70020 | 23795 ft | 402 kts | 76° |
| 2026-05-03 21:03 | 55.29299 | 10.74724 | 23402 ft | 401 kts | 76° |
| 2026-05-03 21:03 | 55.30097 | 10.79401 | 22936 ft | 399 kts | 76° |
| 2026-05-03 21:03 | 55.30623 | 10.82485 | 22656 ft | 397 kts | 76° |
| 2026-05-03 21:04 | 55.31411 | 10.87112 | 22262 ft | 395 kts | 76° |
| 2026-05-03 21:04 | 55.32194 | 10.91712 | 21870 ft | 392 kts | 76° |
| 2026-05-03 21:04 | 55.32968 | 10.96290 | 21469 ft | 389 kts | 76° |
| 2026-05-03 21:04 | 55.33729 | 11.00856 | 21007 ft | 389 kts | 76° |
| 2026-05-03 21:05 | 55.34486 | 11.05401 | 20658 ft | 386 kts | 76° |
| 2026-05-03 21:05 | 55.35238 | 11.09926 | 20269 ft | 384 kts | 76° |
| 2026-05-03 21:05 | 55.36223 | 11.15869 | 19756 ft | 381 kts | 76° |
| 2026-05-03 21:05 | 55.36722 | 11.18892 | 19493 ft | 380 kts | 76° |
| 2026-05-03 21:06 | 55.37457 | 11.23348 | 19114 ft | 379 kts | 76° |
| 2026-05-03 21:06 | 55.38188 | 11.27797 | 18728 ft | 378 kts | 76° |
| 2026-05-03 21:06 | 55.38916 | 11.32228 | 18351 ft | 377 kts | 76° |
| 2026-05-03 21:06 | 55.39631 | 11.36602 | 17951 ft | 376 kts | 76° |
| 2026-05-03 21:07 | 55.40350 | 11.41008 | 17542 ft | 374 kts | 76° |
| 2026-05-03 21:07 | 55.41066 | 11.45407 | 17144 ft | 372 kts | 76° |
| 2026-05-03 21:07 | 55.41775 | 11.49767 | 16768 ft | 370 kts | 76° |
| 2026-05-03 21:07 | 55.42477 | 11.54106 | 16386 ft | 367 kts | 76° |
| 2026-05-03 21:08 | 55.43177 | 11.58435 | 15929 ft | 367 kts | 76° |
| 2026-05-03 21:08 | 55.44098 | 11.62588 | 15458 ft | 365 kts | 59° |
| 2026-05-03 21:08 | 55.45743 | 11.65951 | 15065 ft | 360 kts | 40° |
| 2026-05-03 21:08 | 55.47601 | 11.68840 | 14729 ft | 353 kts | 41° |
| 2026-05-03 21:09 | 55.49410 | 11.71688 | 14382 ft | 346 kts | 41° |
| 2026-05-03 21:09 | 55.51197 | 11.74493 | 14046 ft | 341 kts | 41° |
| 2026-05-03 21:09 | 55.52967 | 11.77271 | 13723 ft | 340 kts | 41° |
| 2026-05-03 21:09 | 55.54654 | 11.80175 | 13322 ft | 337 kts | 52° |
| 2026-05-03 21:10 | 55.55851 | 11.83690 | 12787 ft | 332 kts | 67° |
| 2026-05-03 21:10 | 55.56860 | 11.87315 | 12270 ft | 331 kts | 65° |
| 2026-05-03 21:10 | 55.57914 | 11.90922 | 11818 ft | 331 kts | 64° |
| 2026-05-03 21:10 | 55.58994 | 11.94555 | 11366 ft | 334 kts | 64° |
| 2026-05-03 21:11 | 55.60087 | 11.98194 | 10975 ft | 335 kts | 64° |
| 2026-05-03 21:11 | 55.61185 | 12.01827 | 10633 ft | 334 kts | 64° |
| 2026-05-03 21:11 | 55.62283 | 12.05457 | 10238 ft | 335 kts | 64° |
| 2026-05-03 21:11 | 55.63383 | 12.09090 | 9857 ft | 335 kts | 64° |
| 2026-05-03 21:12 | 55.64473 | 12.12696 | 9432 ft | 327 kts | 64° |
| 2026-05-03 21:12 | 55.65533 | 12.16210 | 9001 ft | 319 kts | 64° |
| 2026-05-03 21:12 | 55.66571 | 12.19652 | 8575 ft | 315 kts | 64° |
| 2026-05-03 21:12 | 55.67594 | 12.23053 | 8151 ft | 311 kts | 64° |
| 2026-05-03 21:13 | 55.68610 | 12.26434 | 7731 ft | 309 kts | 64° |
| 2026-05-03 21:13 | 55.69615 | 12.29783 | 7318 ft | 305 kts | 64° |
| 2026-05-03 21:13 | 55.70603 | 12.33079 | 6917 ft | 300 kts | 64° |
| 2026-05-03 21:13 | 55.71570 | 12.36311 | 6508 ft | 294 kts | 64° |
| 2026-05-03 21:14 | 55.72523 | 12.39497 | 6105 ft | 290 kts | 64° |
| 2026-05-03 21:14 | 55.73446 | 12.42588 | 5690 ft | 285 kts | 64° |
| 2026-05-03 21:14 | 55.74368 | 12.45681 | 5276 ft | 281 kts | 64° |
| 2026-05-03 21:14 | 55.75277 | 12.48730 | 4864 ft | 277 kts | 64° |
| 2026-05-03 21:15 | 55.76176 | 12.51753 | 4462 ft | 279 kts | 64° |
| 2026-05-03 21:15 | 55.77087 | 12.54820 | 4051 ft | 283 kts | 64° |
| 2026-05-03 21:15 | 55.78015 | 12.57948 | 3639 ft | 286 kts | 64° |
| 2026-05-03 21:15 | 55.78944 | 12.61087 | 3318 ft | 286 kts | 64° |
| 2026-05-03 21:16 | 55.79766 | 12.64228 | 3184 ft | 275 kts | 76° |
| 2026-05-03 21:16 | 55.79976 | 12.67501 | 3082 ft | 260 kts | 98° |
| 2026-05-03 21:16 | 55.79515 | 12.70477 | 2982 ft | 243 kts | 121° |
| 2026-05-03 21:16 | 55.78625 | 12.72932 | 2897 ft | 231 kts | 129° |
| 2026-05-03 21:17 | 55.77685 | 12.75227 | 2811 ft | 229 kts | 130° |
| 2026-05-03 21:17 | 55.77061 | 12.76730 | 2767 ft | 229 kts | 130° |
| 2026-05-03 21:17 | 55.75774 | 12.79687 | 2633 ft | 226 kts | 139° |
| 2026-05-03 21:17 | 55.74488 | 12.81121 | 2574 ft | 214 kts | 164° |
| 2026-05-03 21:18 | 55.73044 | 12.81375 | 2484 ft | 207 kts | 190° |
| 2026-05-03 21:18 | 55.71690 | 12.80599 | 2397 ft | 200 kts | 206° |
| 2026-05-03 21:18 | 55.70559 | 12.79262 | 2175 ft | 193 kts | 219° |
| 2026-05-03 21:18 | 55.69571 | 12.77683 | 1900 ft | 190 kts | 221° |
| 2026-05-03 21:19 | 55.68637 | 12.76194 | 1671 ft | 170 kts | 220° |
| 2026-05-03 21:19 | 55.67785 | 12.74877 | 1424 ft | 160 kts | 219° |
| 2026-05-03 21:19 | 55.66965 | 12.73605 | 1239 ft | 152 kts | 219° |
| 2026-05-03 21:19 | 55.66184 | 12.72393 | 1027 ft | 148 kts | 219° |
| 2026-05-03 21:20 | 55.65419 | 12.71212 | 810 ft | 148 kts | 220° |
| 2026-05-03 21:20 | 55.64635 | 12.69995 | 610 ft | 153 kts | 220° |
| 2026-05-03 21:20 | 55.63830 | 12.68761 | 391 ft | 153 kts | 221° |
| 2026-05-03 21:20 | 55.63044 | 12.67524 | 194 ft | 147 kts | 219° |
| 2026-05-03 21:21 | 55.62299 | 12.66375 | 28 ft | 133 kts | 220° |
| 2026-05-03 21:21 | 55.61798 | 12.65605 | 27 ft | 51 kts | 221° |
| 2026-05-03 21:21 | 55.61624 | 12.65298 | 26 ft | 28 kts | 242° |
| 2026-05-03 21:21 | 55.61623 | 12.65017 | 26 ft | 22 kts | 292° |
| 2026-05-03 21:22 | 55.61703 | 12.64851 | 28 ft | 13 kts | 320° |
| 2026-05-03 21:22 | 55.61784 | 12.64787 | 28 ft | 14 kts | 352° |
| 2026-05-03 21:22 | 55.61885 | 12.64810 | 26 ft | 16 kts | 24° |
| 2026-05-03 21:22 | 55.61986 | 12.64921 | 29 ft | 18 kts | 33° |
| 2026-05-03 21:23 | 55.62091 | 12.65043 | 26 ft | 14 kts | 34° |
| 2026-05-03 21:23 | 55.62182 | 12.65150 | 26 ft | 17 kts | 32° |
| 2026-05-03 21:23 | 55.62299 | 12.65206 | 28 ft | 18 kts | 2° |
| 2026-05-03 21:23 | 55.62421 | 12.65211 | 29 ft | 13 kts | 23° |
| 2026-05-03 21:24 | 55.62442 | 12.65360 | 26 ft | 14 kts | 90° |
| 2026-05-03 21:24 | 55.62469 | 12.65435 | 28 ft | 7 kts | 26° |
| 2026-05-03 21:24 | 55.62503 | 12.65462 | 26 ft | 2 kts | 23° |
| 2026-05-03 21:24 | 55.62511 | 12.65468 | 26 ft | 0 kts | 23° |